Weather at Billings Logan International Airport

Public forecast

Using degrees Fahrenheit for public forecast. Weather courtesy of forecast.io.

Current aviation weather report (METAR) for Billings Logan International Airport

Retrieved 2020/09/27 18:53 UTC (38 minutes ago):

KBIL 271853Z 31023G28KT 10SM FEW075 SCT100 15/M04 A3028 RMK AO2 PK WND 29028/1852 SLP248 SHRA DSNT N E-SE T01501044

Aviation forecast (TAF) for Billings Logan International Airport

Retrieved 2020/09/27 18:40 UTC (51 minutes ago):

TAF KBIL 271738Z 2718/2818 32018G28KT P6SM SCT100 FM280200 29008KT P6SM FEW100 FM281000 24006KT P6SM FEW200